createdAt,value
2022-08-20T00:01:43.547Z,100.00
2022-08-20T00:03:50.296Z,100.00
2022-08-20T00:05:57.092Z,100.00
2022-08-20T00:07:58.691Z,100.00
2022-08-20T00:10:00.332Z,100.00
2022-08-20T00:12:01.864Z,100.00
2022-08-20T00:14:04.772Z,100.00
2022-08-20T00:16:06.811Z,100.00
2022-08-20T00:18:08.324Z,100.00
2022-08-20T00:20:10.877Z,100.00
2022-08-20T00:22:13.774Z,100.00
2022-08-20T00:24:15.293Z,100.00
2022-08-20T00:26:17.661Z,100.00
2022-08-20T00:28:19.346Z,100.00
2022-08-20T00:30:20.939Z,100.00
2022-08-20T00:32:22.435Z,100.00
2022-08-20T00:34:23.955Z,100.00
2022-08-20T00:36:32.181Z,100.00
2022-08-20T00:38:36.103Z,100.00
2022-08-20T00:40:38.582Z,100.00
2022-08-20T00:42:41.272Z,100.00
2022-08-20T00:44:44.588Z,100.00
2022-08-20T00:46:46.163Z,100.00
2022-08-20T00:48:48.516Z,100.00
2022-08-20T00:50:50.028Z,100.00
2022-08-20T00:52:51.753Z,100.00
2022-08-20T00:54:55.506Z,100.00
2022-08-20T00:56:57.897Z,100.00
2022-08-20T00:58:59.478Z,100.00
2022-08-20T01:01:00.978Z,100.00
2022-08-20T01:03:02.455Z,100.00
2022-08-20T01:05:04.333Z,100.00
2022-08-20T01:07:06.333Z,100.00
2022-08-20T01:09:08.216Z,100.00
2022-08-20T01:11:11.087Z,100.00
2022-08-20T01:13:13.604Z,100.00
2022-08-20T01:15:16.797Z,100.00
2022-08-20T01:17:19.942Z,100.00
2022-08-20T01:19:29.713Z,100.00
2022-08-20T01:21:31.726Z,100.00
2022-08-20T01:23:34.858Z,100.00
2022-08-20T01:25:40.373Z,100.00
2022-08-20T01:27:41.893Z,100.00
2022-08-20T01:29:44.459Z,100.00
2022-08-20T01:31:45.980Z,100.00
2022-08-20T01:33:48.024Z,100.00
2022-08-20T01:35:50.141Z,100.00
2022-08-20T01:37:52.124Z,100.00
2022-08-20T01:39:53.776Z,100.00
2022-08-20T01:41:59.663Z,100.00
2022-08-20T01:44:01.270Z,100.00
2022-08-20T01:46:04.065Z,100.00
2022-08-20T01:48:06.261Z,100.00
2022-08-20T01:50:10.657Z,100.00
2022-08-20T01:52:12.860Z,100.00
2022-08-20T01:54:14.431Z,100.00
2022-08-20T01:56:17.175Z,100.00
2022-08-20T01:58:20.463Z,100.00
2022-08-20T02:00:22.629Z,100.00
2022-08-20T02:02:25.460Z,100.00
2022-08-20T02:04:26.997Z,100.00
2022-08-20T02:06:28.919Z,100.00
2022-08-20T02:08:30.611Z,100.00
2022-08-20T02:10:32.374Z,100.00
2022-08-20T02:12:33.891Z,100.00
2022-08-20T02:14:38.379Z,100.00
2022-08-20T02:16:42.014Z,100.00
2022-08-20T02:18:43.521Z,100.00
2022-08-20T02:20:45.189Z,100.00
2022-08-20T02:22:50.410Z,100.00
2022-08-20T02:24:52.520Z,100.00
2022-08-20T02:26:54.630Z,100.00
2022-08-20T02:28:56.231Z,100.00
2022-08-20T02:31:04.118Z,100.00
2022-08-20T02:33:07.047Z,100.00
2022-08-20T02:35:09.399Z,100.00
2022-08-20T02:37:11.079Z,100.00
2022-08-20T02:39:12.803Z,100.00
2022-08-20T02:41:14.364Z,100.00
2022-08-20T02:43:15.869Z,100.00
2022-08-20T02:45:18.967Z,100.00
2022-08-20T02:47:22.069Z,100.00
2022-08-20T02:49:23.614Z,100.00
2022-08-20T02:51:30.311Z,100.00
2022-08-20T02:53:32.999Z,100.00
2022-08-20T02:55:34.494Z,100.00
2022-08-20T02:57:36.131Z,100.00
2022-08-20T02:59:37.598Z,100.00
2022-08-20T03:01:39.159Z,100.00
2022-08-20T03:03:42.306Z,100.00
2022-08-20T03:05:44.505Z,100.00
2022-08-20T03:07:46.569Z,100.00
2022-08-20T03:09:48.112Z,100.00
2022-08-20T03:11:49.635Z,100.00
2022-08-20T03:13:51.162Z,100.00
2022-08-20T03:15:58.433Z,100.00
2022-08-20T03:18:00.435Z,100.00
2022-08-20T03:20:04.339Z,100.00
2022-08-20T03:22:05.877Z,100.00
2022-08-20T03:24:07.687Z,100.00
2022-08-20T03:26:09.889Z,100.00
2022-08-20T03:28:11.428Z,100.00
2022-08-20T03:30:14.020Z,100.00
2022-08-20T03:32:15.597Z,100.00
2022-08-20T03:34:17.211Z,100.00
2022-08-20T03:36:22.224Z,100.00
2022-08-20T03:38:32.939Z,100.00
2022-08-20T03:40:35.236Z,100.00
2022-08-20T03:42:36.757Z,100.00
2022-08-20T03:44:38.298Z,100.00
2022-08-20T03:46:39.913Z,100.00
2022-08-20T03:48:41.406Z,100.00
2022-08-20T03:50:43.364Z,100.00
2022-08-20T03:52:46.577Z,100.00
2022-08-20T03:54:48.094Z,100.00
2022-08-20T03:56:49.641Z,100.00
2022-08-20T03:58:51.154Z,100.00
2022-08-20T04:00:52.837Z,100.00
2022-08-20T04:02:54.486Z,100.00
2022-08-20T04:04:58.775Z,100.00
2022-08-20T04:07:00.294Z,100.00
2022-08-20T04:09:03.167Z,100.00
2022-08-20T04:11:04.704Z,100.00
2022-08-20T04:13:06.518Z,100.00
2022-08-20T04:15:09.784Z,100.00
2022-08-20T04:17:12.452Z,100.00
2022-08-20T04:19:14.318Z,100.00
2022-08-20T04:21:15.846Z,100.00
2022-08-20T04:23:17.554Z,100.00
2022-08-20T04:25:20.437Z,100.00
2022-08-20T04:27:25.499Z,100.00
2022-08-20T04:29:32.297Z,100.00
2022-08-20T04:31:34.268Z,100.00
2022-08-20T04:33:35.777Z,100.00
2022-08-20T04:35:37.352Z,100.00
2022-08-20T04:37:38.869Z,100.00
2022-08-20T04:39:40.420Z,100.00
2022-08-20T04:41:43.328Z,100.00
2022-08-20T04:43:44.810Z,100.00
2022-08-20T04:45:46.490Z,100.00
2022-08-20T04:47:48.094Z,100.00
2022-08-20T04:49:49.600Z,100.00
2022-08-20T04:51:51.126Z,100.00
2022-08-20T04:53:53.661Z,100.00
2022-08-20T04:55:56.311Z,100.00
2022-08-20T04:58:03.565Z,100.00
2022-08-20T05:00:06.185Z,100.00
2022-08-20T05:02:07.684Z,100.00
2022-08-20T05:04:09.223Z,100.00
2022-08-20T05:06:11.161Z,100.00
2022-08-20T05:08:20.161Z,100.00
2022-08-20T05:10:21.908Z,100.00
2022-08-20T05:12:23.415Z,100.00
2022-08-20T05:14:26.337Z,100.00
2022-08-20T05:16:27.838Z,100.00
2022-08-20T05:18:29.388Z,100.00
2022-08-20T05:20:31.473Z,100.00
2022-08-20T05:22:32.969Z,100.00
2022-08-20T05:24:34.476Z,100.00
2022-08-20T05:26:35.972Z,100.00
2022-08-20T05:28:57.298Z,100.00
2022-08-20T05:31:01.408Z,100.00
2022-08-20T05:33:03.352Z,100.00
2022-08-20T05:35:05.636Z,100.00
2022-08-20T05:37:07.716Z,100.00
2022-08-20T05:39:09.620Z,100.00
2022-08-20T05:41:11.079Z,100.00
2022-08-20T05:43:29.190Z,100.00
2022-08-20T05:45:30.725Z,100.00
2022-08-20T05:47:37.236Z,100.00
2022-08-20T05:49:44.395Z,100.00
2022-08-20T05:51:45.951Z,100.00
2022-08-20T05:53:47.762Z,100.00
2022-08-20T05:55:49.249Z,100.00
2022-08-20T05:57:50.727Z,100.00
2022-08-20T05:59:52.216Z,100.00
2022-08-20T06:01:53.686Z,100.00
2022-08-20T06:03:56.572Z,100.00
2022-08-20T06:05:58.084Z,100.00
2022-08-20T06:08:07.560Z,100.00
2022-08-20T06:10:09.653Z,100.00
2022-08-20T06:12:11.178Z,100.00
2022-08-20T06:14:12.674Z,100.00
2022-08-20T06:16:14.194Z,100.00
2022-08-20T06:18:28.581Z,100.00
2022-08-20T06:20:31.722Z,100.00
2022-08-20T06:22:33.305Z,100.00
2022-08-20T06:24:34.825Z,100.00
2022-08-20T06:26:36.685Z,100.00
2022-08-20T06:28:38.301Z,100.00
2022-08-20T06:30:39.782Z,100.00
2022-08-20T06:32:41.278Z,100.00
2022-08-20T06:34:50.364Z,100.00
2022-08-20T06:36:53.885Z,100.00
2022-08-20T06:38:55.409Z,100.00
2022-08-20T06:40:56.871Z,100.00
2022-08-20T06:42:58.343Z,100.00
2022-08-20T06:44:59.856Z,100.00
2022-08-20T06:47:01.424Z,100.00
2022-08-20T06:49:03.293Z,100.00
2022-08-20T06:51:04.892Z,100.00
2022-08-20T06:53:08.284Z,100.00
2022-08-20T06:55:11.759Z,100.00
2022-08-20T06:57:13.328Z,100.00
2022-08-20T06:59:14.846Z,100.00
2022-08-20T07:01:16.580Z,100.00
2022-08-20T07:03:18.099Z,100.00
2022-08-20T07:05:19.630Z,100.00
2022-08-20T07:07:21.139Z,100.00
2022-08-20T07:09:24.250Z,100.00
2022-08-20T07:11:28.141Z,100.00
2022-08-20T07:13:30.221Z,100.00
2022-08-20T07:15:31.716Z,100.00
2022-08-20T07:17:33.335Z,100.00
2022-08-20T07:19:34.827Z,100.00
2022-08-20T07:21:36.376Z,100.00
2022-08-20T07:23:37.915Z,100.00
2022-08-20T07:25:41.105Z,100.00
2022-08-20T07:27:42.840Z,100.00
2022-08-20T07:29:44.334Z,100.00
2022-08-20T07:31:45.824Z,100.00
2022-08-20T07:33:50.517Z,100.00
2022-08-20T07:35:52.101Z,100.00
2022-08-20T07:37:53.696Z,100.00
2022-08-20T07:39:55.242Z,100.00
2022-08-20T07:41:58.105Z,100.00
2022-08-20T07:43:59.596Z,100.00
2022-08-20T07:46:01.772Z,100.00
2022-08-20T07:48:06.641Z,100.00
2022-08-20T07:50:08.686Z,100.00
2022-08-20T07:52:10.187Z,100.00
2022-08-20T07:54:11.814Z,100.00
2022-08-20T07:56:13.897Z,100.00
2022-08-20T07:58:17.756Z,100.00
2022-08-20T08:00:20.586Z,100.00
2022-08-20T08:02:22.109Z,100.00
2022-08-20T08:04:23.650Z,100.00
2022-08-20T08:06:29.847Z,100.00
2022-08-20T08:08:32.491Z,100.00
2022-08-20T08:10:34.092Z,100.00
2022-08-20T08:12:36.655Z,100.00
2022-08-20T08:14:40.127Z,100.00
2022-08-20T08:16:41.625Z,100.00
2022-08-20T08:18:45.286Z,100.00
2022-08-20T08:20:47.301Z,100.00
2022-08-20T08:22:48.850Z,100.00
2022-08-20T08:24:57.764Z,100.00
2022-08-20T08:26:59.442Z,100.00
2022-08-20T08:29:01.054Z,100.00
2022-08-20T08:31:03.968Z,100.00
2022-08-20T08:33:05.520Z,100.00
2022-08-20T08:35:07.614Z,100.00
2022-08-20T08:37:09.129Z,100.00
2022-08-20T08:39:10.635Z,100.00
2022-08-20T08:41:14.372Z,100.00
2022-08-20T08:43:17.325Z,100.00
2022-08-20T08:45:22.939Z,100.00
2022-08-20T08:47:26.892Z,100.00
2022-08-20T08:49:37.517Z,100.00
2022-08-20T08:51:40.914Z,100.00
2022-08-20T08:53:44.951Z,100.00
2022-08-20T08:55:46.445Z,100.00
2022-08-20T08:57:48.190Z,100.00
2022-08-20T09:00:02.484Z,100.00
2022-08-20T09:02:06.646Z,100.00
2022-08-20T09:04:09.651Z,100.00
2022-08-20T09:06:12.519Z,100.00
2022-08-20T09:08:16.996Z,100.00
2022-08-20T09:10:22.852Z,100.00
2022-08-20T09:12:25.251Z,100.00
2022-08-20T09:14:26.746Z,100.00
2022-08-20T09:16:28.269Z,100.00
2022-08-20T09:18:46.185Z,100.00
2022-08-20T09:20:50.868Z,100.00
2022-08-20T09:22:52.560Z,100.00
2022-08-20T09:24:54.070Z,100.00
2022-08-20T09:26:55.679Z,100.00
2022-08-20T09:28:57.248Z,100.00
2022-08-20T09:30:58.780Z,100.00
2022-08-20T09:33:00.397Z,100.00
2022-08-20T09:35:01.897Z,100.00
2022-08-20T09:37:04.878Z,100.00
2022-08-20T09:39:06.393Z,100.00
2022-08-20T09:41:07.892Z,100.00
2022-08-20T09:43:09.407Z,100.00
2022-08-20T09:45:11.612Z,100.00
2022-08-20T09:47:13.203Z,99.55
2022-08-20T09:49:14.705Z,100.00
2022-08-20T09:51:16.186Z,100.00
2022-08-20T09:53:19.254Z,100.00
2022-08-20T09:55:21.519Z,98.88
2022-08-20T09:57:23.043Z,92.73
2022-08-20T09:59:24.635Z,82.83
2022-08-20T10:01:26.215Z,88.10
2022-08-20T10:03:27.719Z,90.34
2022-08-20T10:05:29.240Z,88.48
2022-08-20T10:07:31.406Z,83.97
2022-08-20T10:09:34.650Z,80.20
2022-08-20T10:11:36.141Z,77.69
2022-08-20T10:13:37.767Z,80.90
2022-08-20T10:15:39.255Z,85.45
2022-08-20T10:17:43.511Z,86.77
2022-08-20T10:19:45.872Z,83.68
2022-08-20T10:21:47.338Z,85.13
2022-08-20T10:23:48.857Z,81.21
2022-08-20T10:25:51.815Z,76.56
2022-08-20T10:27:53.295Z,82.07
2022-08-20T10:29:54.798Z,79.76
2022-08-20T10:31:56.639Z,69.86
2022-08-20T10:33:58.126Z,67.18
2022-08-20T10:36:05.289Z,72.81
2022-08-20T10:38:06.818Z,72.72
2022-08-20T10:40:09.063Z,69.09
2022-08-20T10:42:11.988Z,69.35
2022-08-20T10:44:13.486Z,71.34
2022-08-20T10:46:14.987Z,67.49
2022-08-20T10:48:20.904Z,66.35
2022-08-20T10:50:23.130Z,68.42
2022-08-20T10:52:24.913Z,69.96
2022-08-20T10:54:26.430Z,72.98
2022-08-20T10:56:28.015Z,71.46
2022-08-20T10:58:37.464Z,69.83
2022-08-20T11:00:40.987Z,65.95
2022-08-20T11:02:42.547Z,64.75
2022-08-20T11:04:44.178Z,64.50
2022-08-20T11:06:45.691Z,64.37
2022-08-20T11:08:47.245Z,61.94
2022-08-20T11:10:48.758Z,59.98
2022-08-20T11:12:50.274Z,58.91
2022-08-20T11:14:54.913Z,58.10
2022-08-20T11:16:56.399Z,55.52
2022-08-20T11:18:57.910Z,54.14
2022-08-20T11:20:59.418Z,52.85
2022-08-20T11:23:00.915Z,54.77
2022-08-20T11:25:02.558Z,55.60
2022-08-20T11:27:04.283Z,55.14
2022-08-20T11:29:05.872Z,53.16
2022-08-20T11:31:08.776Z,53.15
2022-08-20T11:33:10.297Z,52.75
2022-08-20T11:35:38.869Z,51.26
2022-08-20T11:37:33.287Z,50.55
2022-08-20T11:39:38.561Z,52.54
2022-08-20T11:41:45.734Z,53.83
2022-08-20T11:44:04.756Z,53.45
2022-08-20T11:46:10.215Z,52.97
2022-08-20T11:48:11.722Z,51.09
2022-08-20T11:50:13.941Z,51.92
2022-08-20T11:52:21.064Z,53.26
2022-08-20T11:54:25.423Z,53.00
2022-08-20T11:56:27.628Z,53.33
2022-08-20T11:58:29.170Z,54.93
2022-08-20T12:00:33.538Z,54.98
2022-08-20T12:02:36.771Z,54.60
2022-08-20T12:04:38.348Z,54.49
2022-08-20T12:06:39.832Z,53.32
2022-08-20T12:08:41.327Z,51.10
2022-08-20T12:10:42.796Z,50.41
2022-08-20T12:12:44.354Z,50.74
2022-08-20T12:14:45.951Z,50.10
2022-08-20T12:16:47.453Z,49.89
2022-08-20T12:18:50.325Z,49.21
2022-08-20T12:20:51.845Z,49.32
2022-08-20T12:22:53.329Z,49.59
2022-08-20T12:24:54.922Z,49.38
2022-08-20T12:26:56.428Z,49.60
2022-08-20T12:28:57.915Z,50.20
2022-08-20T12:30:59.527Z,49.98
2022-08-20T12:33:00.997Z,50.76
2022-08-20T12:35:04.194Z,52.86
2022-08-20T12:37:07.168Z,54.00
2022-08-20T12:39:08.665Z,51.78
2022-08-20T12:41:10.167Z,51.33
2022-08-20T12:43:11.695Z,51.02
2022-08-20T12:45:13.171Z,51.39
2022-08-20T12:47:16.138Z,53.45
2022-08-20T12:49:17.708Z,53.29
2022-08-20T12:51:20.598Z,52.21
2022-08-20T12:53:22.077Z,52.69
2022-08-20T12:55:23.615Z,52.18
2022-08-20T12:57:26.356Z,52.66
2022-08-20T12:59:27.858Z,52.52
2022-08-20T13:01:29.462Z,51.93
2022-08-20T13:03:32.281Z,50.16
2022-08-20T13:05:34.223Z,48.07
2022-08-20T13:07:37.473Z,48.79
2022-08-20T13:09:40.390Z,47.96
2022-08-20T13:11:42.023Z,44.94
2022-08-20T13:13:43.514Z,41.17
2022-08-20T13:15:45.040Z,41.36
2022-08-20T13:17:50.086Z,38.66
2022-08-20T13:19:51.615Z,37.22
2022-08-20T13:21:54.834Z,35.58
2022-08-20T13:23:58.030Z,36.10
2022-08-20T13:25:59.520Z,36.36
2022-08-20T13:28:01.540Z,35.51
2022-08-20T13:30:03.249Z,33.66
2022-08-20T13:32:04.872Z,32.51
2022-08-20T13:34:06.346Z,33.35
2022-08-20T13:36:08.060Z,32.62
2022-08-20T13:38:09.568Z,32.66
2022-08-20T13:40:12.788Z,32.30
2022-08-20T13:42:14.568Z,31.04
2022-08-20T13:44:16.151Z,31.48
2022-08-20T13:46:17.641Z,31.56
2022-08-20T13:48:19.111Z,33.04
2022-08-20T13:50:21.127Z,33.42
2022-08-20T13:52:22.612Z,33.33
2022-08-20T13:54:29.910Z,33.49
2022-08-20T13:56:33.458Z,32.42
2022-08-20T13:58:34.964Z,30.10
2022-08-20T14:00:36.465Z,30.87
2022-08-20T14:02:38.098Z,32.61
2022-08-20T14:04:39.624Z,31.63
2022-08-20T14:06:41.100Z,29.98
2022-08-20T14:08:42.620Z,29.33
2022-08-20T14:10:44.479Z,29.62
2022-08-20T14:12:50.245Z,28.88
2022-08-20T14:14:51.985Z,29.93
2022-08-20T14:16:53.518Z,28.71
2022-08-20T14:18:55.036Z,28.45
2022-08-20T14:20:56.572Z,28.96
2022-08-20T14:22:58.397Z,29.62
2022-08-20T14:24:59.918Z,29.09
2022-08-20T14:27:02.388Z,27.59
2022-08-20T14:29:05.362Z,26.88
2022-08-20T14:31:06.846Z,25.41
2022-08-20T14:33:08.584Z,25.96
2022-08-20T14:35:10.139Z,26.00
2022-08-20T14:37:15.337Z,24.76
2022-08-20T14:39:20.293Z,24.90
2022-08-20T14:41:22.070Z,25.07
2022-08-20T14:43:23.576Z,25.79
2022-08-20T14:45:26.451Z,25.03
2022-08-20T14:47:28.668Z,25.21
2022-08-20T14:49:30.197Z,23.57
2022-08-20T14:51:31.701Z,24.58
2022-08-20T14:53:35.596Z,23.15
2022-08-20T14:55:38.931Z,23.84
2022-08-20T14:57:40.518Z,25.52
2022-08-20T14:59:42.380Z,24.60
2022-08-20T15:01:45.231Z,24.15
2022-08-20T15:03:46.728Z,23.62
2022-08-20T15:05:48.256Z,23.52
2022-08-20T15:07:53.810Z,23.54
2022-08-20T15:09:55.827Z,22.77
2022-08-20T15:11:57.357Z,21.90
2022-08-20T15:13:58.835Z,21.91
2022-08-20T15:16:00.344Z,22.30
2022-08-20T15:18:03.396Z,22.08
2022-08-20T15:20:06.654Z,22.12
2022-08-20T15:22:08.156Z,22.27
2022-08-20T15:24:18.849Z,21.08
2022-08-20T15:26:21.170Z,21.77
2022-08-20T15:28:22.656Z,21.98
2022-08-20T15:30:24.333Z,23.11
2022-08-20T15:32:25.832Z,23.17
2022-08-20T15:34:28.689Z,24.49
2022-08-20T15:36:30.159Z,22.44
2022-08-20T15:38:31.649Z,23.75
2022-08-20T15:40:33.291Z,25.36
2022-08-20T15:42:34.822Z,24.26
2022-08-20T15:44:36.774Z,24.30
2022-08-20T15:46:39.636Z,25.09
2022-08-20T15:48:42.173Z,24.23
2022-08-20T15:51:02.604Z,24.50
2022-08-20T15:53:05.464Z,24.64
2022-08-20T15:55:07.193Z,24.01
2022-08-20T15:57:10.242Z,23.47
2022-08-20T15:59:21.793Z,24.31
2022-08-20T16:01:25.694Z,24.99
2022-08-20T16:03:32.480Z,25.81
2022-08-20T16:05:37.625Z,25.24
2022-08-20T16:07:42.818Z,24.51
2022-08-20T16:09:47.043Z,25.80
2022-08-20T16:11:49.522Z,24.66
2022-08-20T16:13:51.719Z,23.59
2022-08-20T16:15:53.445Z,23.55
2022-08-20T16:17:58.521Z,24.04
2022-08-20T16:20:01.726Z,24.18
2022-08-20T16:22:03.598Z,24.78
2022-08-20T16:24:07.045Z,24.38
2022-08-20T16:26:15.682Z,24.01
2022-08-20T16:28:19.923Z,23.53
2022-08-20T16:30:24.224Z,24.32
2022-08-20T16:32:31.745Z,24.21
2022-08-20T16:34:34.839Z,23.22
2022-08-20T16:36:38.397Z,23.18
2022-08-20T16:38:41.358Z,23.44
2022-08-20T16:40:49.693Z,23.18
2022-08-20T16:42:52.359Z,24.20
2022-08-20T16:44:54.377Z,24.03
2022-08-20T16:46:57.258Z,23.55
2022-08-20T16:48:59.555Z,25.23
2022-08-20T16:51:01.885Z,25.12
2022-08-20T16:53:03.512Z,24.17
2022-08-20T16:55:05.091Z,24.46
2022-08-20T16:57:07.963Z,23.22
2022-08-20T16:59:10.454Z,21.75
2022-08-20T17:01:13.826Z,22.05
2022-08-20T17:03:38.603Z,23.22
2022-08-20T17:05:44.914Z,23.86
2022-08-20T17:07:47.567Z,24.05
2022-08-20T17:09:52.851Z,23.54
2022-08-20T17:11:54.480Z,23.32
2022-08-20T17:14:05.073Z,22.42
2022-08-20T17:16:17.460Z,23.01
2022-08-20T17:18:22.039Z,23.23
2022-08-20T17:20:24.490Z,23.47
2022-08-20T17:22:30.374Z,23.42
2022-08-20T17:24:31.988Z,23.95
2022-08-20T17:26:33.978Z,24.88
2022-08-20T17:28:35.725Z,24.21
2022-08-20T17:30:38.585Z,24.49
2022-08-20T17:32:46.876Z,24.64
2022-08-20T17:34:49.076Z,25.80
2022-08-20T17:36:52.407Z,25.57
2022-08-20T17:38:54.772Z,25.26
2022-08-20T17:40:58.320Z,24.80
2022-08-20T17:43:01.019Z,25.26
2022-08-20T17:45:04.335Z,26.05
2022-08-20T17:47:12.359Z,26.64
2022-08-20T17:49:14.856Z,27.60
2022-08-20T17:51:17.264Z,27.93
2022-08-20T17:53:23.131Z,28.54
2022-08-20T17:55:25.002Z,28.22
2022-08-20T17:57:27.014Z,28.64
2022-08-20T17:59:59.839Z,29.53
2022-08-20T18:01:52.299Z,30.85
2022-08-20T18:03:55.203Z,30.73
2022-08-20T18:05:57.533Z,31.12
2022-08-20T18:08:05.739Z,31.88
2022-08-20T18:10:08.434Z,31.91
2022-08-20T18:12:21.567Z,31.04
2022-08-20T18:14:35.233Z,30.15
2022-08-20T18:16:38.863Z,29.98
2022-08-20T18:18:50.888Z,31.30
2022-08-20T18:21:13.557Z,32.46
2022-08-20T18:23:16.896Z,32.44
2022-08-20T18:25:22.931Z,32.80
2022-08-20T18:27:24.720Z,33.33
2022-08-20T18:29:26.733Z,33.48
2022-08-20T18:31:28.946Z,34.55
2022-08-20T18:33:31.371Z,35.43
2022-08-20T18:35:35.156Z,36.00
2022-08-20T18:37:36.670Z,36.76
2022-08-20T18:39:40.216Z,36.86
2022-08-20T18:41:43.557Z,37.64
2022-08-20T18:43:45.110Z,38.74
2022-08-20T18:45:46.625Z,38.72
2022-08-20T18:47:48.109Z,38.98
2022-08-20T18:49:58.697Z,39.41
2022-08-20T18:52:08.339Z,39.50
2022-08-20T18:54:19.737Z,40.29
2022-08-20T18:56:30.708Z,40.84
2022-08-20T18:58:34.726Z,41.22
2022-08-20T19:00:37.371Z,41.92
2022-08-20T19:02:50.716Z,42.75
2022-08-20T19:04:59.721Z,43.19
2022-08-20T19:07:04.853Z,43.62
2022-08-20T19:09:09.300Z,43.95
2022-08-20T19:11:15.292Z,44.19
2022-08-20T19:13:27.936Z,44.25
2022-08-20T19:15:29.451Z,45.08
2022-08-20T19:17:45.871Z,45.28
2022-08-20T19:19:57.489Z,45.01
2022-08-20T19:21:59.359Z,45.52
2022-08-20T19:24:02.810Z,45.69
2022-08-20T19:26:05.336Z,45.45
2022-08-20T19:28:17.076Z,45.84
2022-08-20T19:30:29.599Z,46.75
2022-08-20T19:32:31.973Z,46.59
2022-08-20T19:34:33.811Z,46.75
2022-08-20T19:36:35.534Z,47.54
2022-08-20T19:38:41.807Z,47.77
2022-08-20T19:40:46.192Z,48.26
2022-08-20T19:42:47.896Z,48.32
2022-08-20T19:44:50.496Z,49.17
2022-08-20T19:46:53.409Z,52.30
2022-08-20T19:48:58.112Z,60.71
2022-08-20T19:51:01.961Z,60.89
2022-08-20T19:53:05.761Z,61.04
2022-08-20T19:55:14.830Z,64.96
2022-08-20T19:57:16.682Z,68.61
2022-08-20T19:59:19.531Z,70.86
2022-08-20T20:01:21.119Z,72.22
2022-08-20T20:03:25.408Z,72.72
2022-08-20T20:05:26.918Z,73.82
2022-08-20T20:07:29.139Z,76.13
2022-08-20T20:09:30.674Z,76.87
2022-08-20T20:11:33.692Z,76.04
2022-08-20T20:13:37.771Z,77.05
2022-08-20T20:15:41.486Z,76.47
2022-08-20T20:17:43.051Z,78.36
2022-08-20T20:19:46.430Z,77.97
2022-08-20T20:21:48.747Z,79.05
2022-08-20T20:23:50.992Z,78.72
2022-08-20T20:25:53.823Z,79.58
2022-08-20T20:27:56.824Z,80.84
2022-08-20T20:29:58.980Z,83.70
2022-08-20T20:32:00.749Z,81.23
2022-08-20T20:34:04.076Z,84.09
2022-08-20T20:36:08.199Z,86.10
2022-08-20T20:38:10.486Z,85.55
2022-08-20T20:40:19.388Z,89.11
2022-08-20T20:42:24.859Z,91.92
2022-08-20T20:44:26.960Z,92.60
2022-08-20T20:46:28.766Z,93.41
2022-08-20T20:48:32.897Z,93.10
2022-08-20T20:50:35.563Z,92.12
2022-08-20T20:52:48.999Z,93.00
2022-08-20T20:54:50.853Z,95.44
2022-08-20T20:57:01.101Z,94.78
2022-08-20T20:59:06.474Z,96.30
2022-08-20T21:01:08.528Z,96.68
2022-08-20T21:03:10.063Z,97.44
2022-08-20T21:05:12.453Z,97.47
2022-08-20T21:07:15.819Z,96.99
2022-08-20T21:09:18.715Z,95.67
2022-08-20T21:11:20.246Z,96.11
2022-08-20T21:13:22.182Z,98.44
2022-08-20T21:15:24.193Z,96.27
2022-08-20T21:17:25.674Z,96.74
2022-08-20T21:19:27.320Z,97.85
2022-08-20T21:21:28.836Z,98.98
2022-08-20T21:23:40.455Z,98.14
2022-08-20T21:25:44.931Z,98.25
2022-08-20T21:27:47.490Z,100.00
2022-08-20T21:29:48.984Z,97.17
2022-08-20T21:31:50.472Z,98.48
2022-08-20T21:33:51.986Z,99.20
2022-08-20T21:35:54.156Z,99.50
2022-08-20T21:37:55.682Z,100.00
2022-08-20T21:39:57.310Z,100.00
2022-08-20T21:42:00.962Z,100.00
2022-08-20T21:44:03.522Z,99.64
2022-08-20T21:46:06.255Z,100.00
2022-08-20T21:48:07.845Z,100.00
2022-08-20T21:50:10.032Z,100.00
2022-08-20T21:52:11.583Z,100.00
2022-08-20T21:54:13.157Z,100.00
2022-08-20T21:56:14.717Z,100.00
2022-08-20T21:58:17.584Z,100.00
2022-08-20T22:00:19.971Z,100.00
2022-08-20T22:02:21.595Z,100.00
2022-08-20T22:04:26.657Z,100.00
2022-08-20T22:06:28.255Z,100.00
2022-08-20T22:08:29.749Z,100.00
2022-08-20T22:10:31.254Z,100.00
2022-08-20T22:12:32.767Z,100.00
2022-08-20T22:14:35.634Z,100.00
2022-08-20T22:16:37.250Z,100.00
2022-08-20T22:18:44.349Z,100.00
2022-08-20T22:20:45.898Z,100.00
2022-08-20T22:22:47.395Z,100.00
2022-08-20T22:24:48.901Z,100.00
2022-08-20T22:26:50.381Z,100.00
2022-08-20T22:28:51.894Z,100.00
2022-08-20T22:30:54.740Z,100.00
2022-08-20T22:32:56.606Z,100.00
2022-08-20T22:34:58.147Z,100.00
2022-08-20T22:37:00.098Z,100.00
2022-08-20T22:39:01.637Z,100.00
2022-08-20T22:41:07.580Z,100.00
2022-08-20T22:43:11.066Z,100.00
2022-08-20T22:45:14.889Z,100.00
2022-08-20T22:47:18.074Z,100.00
2022-08-20T22:49:20.450Z,100.00
2022-08-20T22:51:23.066Z,100.00
2022-08-20T22:53:25.131Z,100.00
2022-08-20T22:55:26.671Z,100.00
2022-08-20T22:57:28.142Z,100.00
2022-08-20T22:59:30.223Z,100.00
2022-08-20T23:01:32.675Z,100.00
2022-08-20T23:03:39.471Z,100.00
2022-08-20T23:05:41.868Z,100.00
2022-08-20T23:07:43.466Z,100.00
2022-08-20T23:09:44.972Z,100.00
2022-08-20T23:11:46.457Z,100.00
2022-08-20T23:13:47.968Z,100.00
2022-08-20T23:15:49.607Z,100.00
2022-08-20T23:18:00.915Z,100.00
2022-08-20T23:20:04.293Z,100.00
2022-08-20T23:22:06.012Z,100.00
2022-08-20T23:24:07.698Z,100.00
2022-08-20T23:26:17.751Z,100.00
2022-08-20T23:28:20.046Z,100.00
2022-08-20T23:30:21.966Z,100.00
2022-08-20T23:32:23.455Z,100.00
2022-08-20T23:34:25.683Z,100.00
2022-08-20T23:36:28.579Z,100.00
2022-08-20T23:38:30.119Z,100.00
2022-08-20T23:40:32.253Z,100.00
2022-08-20T23:42:33.767Z,100.00
2022-08-20T23:44:35.353Z,100.00
2022-08-20T23:46:37.071Z,100.00
2022-08-20T23:48:38.538Z,100.00
2022-08-20T23:50:40.065Z,100.00
2022-08-20T23:52:43.042Z,100.00
2022-08-20T23:54:44.584Z,100.00
2022-08-20T23:56:46.091Z,100.00
2022-08-20T23:58:47.589Z,100.00
